Main page
Satellite images Climate Cyclones Lightning AirportsFAQ Languages Contact Newsletter About
Weather : Europe Africa North America South America Asia Australia-Oceania Others

hanoi-vn, Hanoi, Noi Bai International Airport

latitude: , longitude: Vietnam, elevation: 21-01N m


METAR: VVNB 181130Z 09003KT 9999 FEW023 27/27 Q1000 NOSIG